sensor_id;sensor_type;location;lat;lon;timestamp;P1;durP1;ratioP1;P2;durP2;ratioP2
59960;SDS011;55902;-37.980;-63.602;2022-09-24T00:01:45;10.10;;;5.68;;
59960;SDS011;55902;-37.980;-63.602;2022-09-24T00:04:12;12.27;;;6.15;;
59960;SDS011;55902;-37.980;-63.602;2022-09-24T00:06:41;10.45;;;5.10;;
59960;SDS011;55902;-37.980;-63.602;2022-09-24T00:09:10;9.13;;;5.13;;
59960;SDS011;55902;-37.980;-63.602;2022-09-24T00:11:38;10.40;;;4.70;;
59960;SDS011;55902;-37.980;-63.602;2022-09-24T00:14:06;8.23;;;5.18;;
59960;SDS011;55902;-37.980;-63.602;2022-09-24T00:16:33;8.88;;;4.45;;
59960;SDS011;55902;-37.980;-63.602;2022-09-24T00:19:03;8.52;;;3.50;;
59960;SDS011;55902;-37.980;-63.602;2022-09-24T00:21:31;6.45;;;2.92;;
59960;SDS011;55902;-37.980;-63.602;2022-09-24T00:24:01;4.90;;;2.90;;
59960;SDS011;55902;-37.980;-63.602;2022-09-24T00:26:30;6.30;;;3.15;;
59960;SDS011;55902;-37.980;-63.602;2022-09-24T00:29:24;7.07;;;3.45;;
59960;SDS011;55902;-37.980;-63.602;2022-09-24T00:31:51;5.95;;;2.92;;
59960;SDS011;55902;-37.980;-63.602;2022-09-24T00:34:19;5.90;;;3.20;;
59960;SDS011;55902;-37.980;-63.602;2022-09-24T00:36:46;5.88;;;3.10;;
59960;SDS011;55902;-37.980;-63.602;2022-09-24T00:39:13;4.82;;;2.50;;
59960;SDS011;55902;-37.980;-63.602;2022-09-24T00:41:41;5.38;;;2.67;;
59960;SDS011;55902;-37.980;-63.602;2022-09-24T00:47:00;5.05;;;2.80;;
59960;SDS011;55902;-37.980;-63.602;2022-09-24T00:49:27;6.80;;;2.38;;
59960;SDS011;55902;-37.980;-63.602;2022-09-24T00:51:54;5.82;;;2.30;;
59960;SDS011;55902;-37.980;-63.602;2022-09-24T00:54:24;6.35;;;2.30;;
59960;SDS011;55902;-37.980;-63.602;2022-09-24T00:56:53;6.68;;;2.38;;
59960;SDS011;55902;-37.980;-63.602;2022-09-24T00:59:23;5.32;;;2.53;;
59960;SDS011;55902;-37.980;-63.602;2022-09-24T01:01:52;7.50;;;3.67;;
59960;SDS011;55902;-37.980;-63.602;2022-09-24T01:04:22;6.15;;;3.50;;
59960;SDS011;55902;-37.980;-63.602;2022-09-24T01:06:50;6.00;;;4.00;;
59960;SDS011;55902;-37.980;-63.602;2022-09-24T01:18:48;6.45;;;2.17;;
59960;SDS011;55902;-37.980;-63.602;2022-09-24T01:27:17;6.30;;;3.60;;
59960;SDS011;55902;-37.980;-63.602;2022-09-24T01:30:07;5.65;;;3.25;;
59960;SDS011;55902;-37.980;-63.602;2022-09-24T01:35:18;5.10;;;3.05;;
59960;SDS011;55902;-37.980;-63.602;2022-09-24T01:37:56;6.70;;;2.25;;
59960;SDS011;55902;-37.980;-63.602;2022-09-24T01:40:29;3.92;;;2.00;;
59960;SDS011;55902;-37.980;-63.602;2022-09-24T01:42:58;5.05;;;2.00;;
59960;SDS011;55902;-37.980;-63.602;2022-09-24T01:45:28;4.57;;;1.77;;
59960;SDS011;55902;-37.980;-63.602;2022-09-24T01:47:59;5.03;;;1.70;;
59960;SDS011;55902;-37.980;-63.602;2022-09-24T01:50:30;1.77;;;1.50;;
59960;SDS011;55902;-37.980;-63.602;2022-09-24T01:53:07;2.28;;;1.67;;
59960;SDS011;55902;-37.980;-63.602;2022-09-24T01:55:42;3.00;;;1.70;;
59960;SDS011;55902;-37.980;-63.602;2022-09-24T01:58:16;2.58;;;1.60;;
59960;SDS011;55902;-37.980;-63.602;2022-09-24T02:00:58;3.58;;;1.58;;
59960;SDS011;55902;-37.980;-63.602;2022-09-24T02:03:40;3.08;;;1.80;;
59960;SDS011;55902;-37.980;-63.602;2022-09-24T02:06:16;8.48;;;3.28;;
59960;SDS011;55902;-37.980;-63.602;2022-09-24T02:08:58;6.82;;;3.70;;
59960;SDS011;55902;-37.980;-63.602;2022-09-24T02:11:24;10.32;;;4.10;;
59960;SDS011;55902;-37.980;-63.602;2022-09-24T02:16:39;5.63;;;3.30;;
59960;SDS011;55902;-37.980;-63.602;2022-09-24T02:19:16;7.22;;;3.70;;
59960;SDS011;55902;-37.980;-63.602;2022-09-24T02:21:47;4.10;;;2.80;;
59960;SDS011;55902;-37.980;-63.602;2022-09-24T02:24:17;5.55;;;2.50;;
59960;SDS011;55902;-37.980;-63.602;2022-09-24T02:26:45;4.65;;;2.60;;
59960;SDS011;55902;-37.980;-63.602;2022-09-24T02:29:12;7.20;;;4.47;;
59960;SDS011;55902;-37.980;-63.602;2022-09-24T02:31:40;7.82;;;5.15;;
59960;SDS011;55902;-37.980;-63.602;2022-09-24T02:34:13;9.98;;;4.70;;
59960;SDS011;55902;-37.980;-63.602;2022-09-24T02:36:47;11.10;;;5.65;;
59960;SDS011;55902;-37.980;-63.602;2022-09-24T02:39:20;15.60;;;9.07;;
59960;SDS011;55902;-37.980;-63.602;2022-09-24T02:41:48;17.42;;;8.90;;
59960;SDS011;55902;-37.980;-63.602;2022-09-24T02:44:19;16.77;;;8.40;;
59960;SDS011;55902;-37.980;-63.602;2022-09-24T02:46:46;10.82;;;4.22;;
59960;SDS011;55902;-37.980;-63.602;2022-09-24T02:49:15;3.80;;;2.67;;
59960;SDS011;55902;-37.980;-63.602;2022-09-24T02:51:42;4.93;;;2.33;;
59960;SDS011;55902;-37.980;-63.602;2022-09-24T02:54:09;4.60;;;2.20;;
59960;SDS011;55902;-37.980;-63.602;2022-09-24T02:56:37;3.13;;;2.17;;
59960;SDS011;55902;-37.980;-63.602;2022-09-24T02:59:04;4.07;;;2.00;;
59960;SDS011;55902;-37.980;-63.602;2022-09-24T03:01:32;2.83;;;1.90;;
59960;SDS011;55902;-37.980;-63.602;2022-09-24T03:03:59;3.55;;;1.63;;
59960;SDS011;55902;-37.980;-63.602;2022-09-24T03:06:27;6.15;;;1.75;;
59960;SDS011;55902;-37.980;-63.602;2022-09-24T03:08:54;3.38;;;1.92;;
59960;SDS011;55902;-37.980;-63.602;2022-09-24T03:11:22;3.05;;;1.95;;
59960;SDS011;55902;-37.980;-63.602;2022-09-24T03:13:50;3.42;;;1.80;;
59960;SDS011;55902;-37.980;-63.602;2022-09-24T03:16:17;2.83;;;1.70;;
59960;SDS011;55902;-37.980;-63.602;2022-09-24T03:18:45;5.07;;;1.60;;
59960;SDS011;55902;-37.980;-63.602;2022-09-24T03:21:13;4.65;;;1.77;;
59960;SDS011;55902;-37.980;-63.602;2022-09-24T03:23:41;3.40;;;1.60;;
59960;SDS011;55902;-37.980;-63.602;2022-09-24T03:26:08;2.97;;;1.80;;
59960;SDS011;55902;-37.980;-63.602;2022-09-24T03:28:35;2.63;;;1.52;;
59960;SDS011;55902;-37.980;-63.602;2022-09-24T03:31:03;4.60;;;1.60;;
59960;SDS011;55902;-37.980;-63.602;2022-09-24T03:33:36;2.15;;;1.45;;
59960;SDS011;55902;-37.980;-63.602;2022-09-24T03:38:37;7.55;;;1.85;;
59960;SDS011;55902;-37.980;-63.602;2022-09-24T03:41:06;5.43;;;2.70;;
59960;SDS011;55902;-37.980;-63.602;2022-09-24T03:43:33;9.15;;;4.53;;
59960;SDS011;55902;-37.980;-63.602;2022-09-24T03:46:01;15.25;;;4.93;;
59960;SDS011;55902;-37.980;-63.602;2022-09-24T03:48:31;5.45;;;2.70;;
59960;SDS011;55902;-37.980;-63.602;2022-09-24T03:51:04;4.22;;;2.10;;
59960;SDS011;55902;-37.980;-63.602;2022-09-24T03:53:32;3.95;;;1.75;;
59960;SDS011;55902;-37.980;-63.602;2022-09-24T03:59:21;2.05;;;1.50;;
59960;SDS011;55902;-37.980;-63.602;2022-09-24T04:01:48;4.25;;;1.48;;
59960;SDS011;55902;-37.980;-63.602;2022-09-24T04:04:14;2.38;;;1.55;;
59960;SDS011;55902;-37.980;-63.602;2022-09-24T04:06:41;2.53;;;1.50;;
59960;SDS011;55902;-37.980;-63.602;2022-09-24T04:09:09;2.17;;;1.40;;
59960;SDS011;55902;-37.980;-63.602;2022-09-24T04:11:35;3.92;;;1.50;;
59960;SDS011;55902;-37.980;-63.602;2022-09-24T04:14:02;2.63;;;1.40;;
59960;SDS011;55902;-37.980;-63.602;2022-09-24T04:16:29;2.03;;;1.42;;
59960;SDS011;55902;-37.980;-63.602;2022-09-24T04:18:59;2.20;;;1.55;;
59960;SDS011;55902;-37.980;-63.602;2022-09-24T04:21:26;2.95;;;1.40;;
59960;SDS011;55902;-37.980;-63.602;2022-09-24T04:23:54;2.35;;;1.40;;
59960;SDS011;55902;-37.980;-63.602;2022-09-24T04:26:21;4.13;;;1.50;;
59960;SDS011;55902;-37.980;-63.602;2022-09-24T04:28:48;2.65;;;1.50;;
59960;SDS011;55902;-37.980;-63.602;2022-09-24T04:31:15;2.20;;;1.50;;
59960;SDS011;55902;-37.980;-63.602;2022-09-24T04:33:41;5.40;;;2.15;;
59960;SDS011;55902;-37.980;-63.602;2022-09-24T04:36:08;5.07;;;1.60;;
59960;SDS011;55902;-37.980;-63.602;2022-09-24T04:38:35;2.97;;;1.60;;
59960;SDS011;55902;-37.980;-63.602;2022-09-24T04:51:14;4.00;;;1.73;;
59960;SDS011;55902;-37.980;-63.602;2022-09-24T04:53:43;3.42;;;1.40;;
59960;SDS011;55902;-37.980;-63.602;2022-09-24T04:56:12;4.00;;;1.60;;
59960;SDS011;55902;-37.980;-63.602;2022-09-24T04:58:39;1.60;;;1.50;;
59960;SDS011;55902;-37.980;-63.602;2022-09-24T05:01:06;1.70;;;1.60;;
59960;SDS011;55902;-37.980;-63.602;2022-09-24T05:03:33;2.92;;;1.50;;
59960;SDS011;55902;-37.980;-63.602;2022-09-24T05:06:00;1.90;;;1.55;;
59960;SDS011;55902;-37.980;-63.602;2022-09-24T05:08:27;2.78;;;1.48;;
59960;SDS011;55902;-37.980;-63.602;2022-09-24T05:10:54;1.75;;;1.50;;
59960;SDS011;55902;-37.980;-63.602;2022-09-24T05:13:21;2.88;;;2.10;;
59960;SDS011;55902;-37.980;-63.602;2022-09-24T05:15:48;4.95;;;1.70;;
59960;SDS011;55902;-37.980;-63.602;2022-09-24T05:18:14;3.15;;;1.50;;
59960;SDS011;55902;-37.980;-63.602;2022-09-24T05:20:41;3.03;;;1.60;;
59960;SDS011;55902;-37.980;-63.602;2022-09-24T05:23:08;6.10;;;2.08;;
59960;SDS011;55902;-37.980;-63.602;2022-09-24T05:25:35;2.03;;;1.65;;
59960;SDS011;55902;-37.980;-63.602;2022-09-24T05:28:21;2.55;;;1.40;;
59960;SDS011;55902;-37.980;-63.602;2022-09-24T05:30:49;3.85;;;1.48;;
59960;SDS011;55902;-37.980;-63.602;2022-09-24T05:33:15;6.15;;;1.58;;
59960;SDS011;55902;-37.980;-63.602;2022-09-24T05:35:42;3.60;;;1.83;;
59960;SDS011;55902;-37.980;-63.602;2022-09-24T05:38:09;1.88;;;1.50;;
59960;SDS011;55902;-37.980;-63.602;2022-09-24T05:40:39;3.05;;;1.60;;
59960;SDS011;55902;-37.980;-63.602;2022-09-24T05:45:41;2.80;;;1.33;;
59960;SDS011;55902;-37.980;-63.602;2022-09-24T05:48:10;2.13;;;1.50;;
59960;SDS011;55902;-37.980;-63.602;2022-09-24T05:50:37;4.53;;;1.50;;
59960;SDS011;55902;-37.980;-63.602;2022-09-24T05:53:04;2.65;;;1.30;;
59960;SDS011;55902;-37.980;-63.602;2022-09-24T05:55:31;1.42;;;1.20;;
59960;SDS011;55902;-37.980;-63.602;2022-09-24T05:58:08;5.97;;;1.50;;
59960;SDS011;55902;-37.980;-63.602;2022-09-24T06:00:35;2.28;;;1.30;;
59960;SDS011;55902;-37.980;-63.602;2022-09-24T06:03:03;2.70;;;1.65;;
59960;SDS011;55902;-37.980;-63.602;2022-09-24T06:05:32;3.88;;;1.80;;
59960;SDS011;55902;-37.980;-63.602;2022-09-24T06:08:00;3.95;;;1.60;;
59960;SDS011;55902;-37.980;-63.602;2022-09-24T06:10:28;2.88;;;1.52;;
59960;SDS011;55902;-37.980;-63.602;2022-09-24T06:12:55;3.90;;;1.40;;
59960;SDS011;55902;-37.980;-63.602;2022-09-24T06:15:22;2.13;;;1.50;;
59960;SDS011;55902;-37.980;-63.602;2022-09-24T06:17:54;3.80;;;1.40;;
59960;SDS011;55902;-37.980;-63.602;2022-09-24T06:20:24;2.13;;;1.40;;
59960;SDS011;55902;-37.980;-63.602;2022-09-24T06:22:53;3.05;;;1.60;;
59960;SDS011;55902;-37.980;-63.602;2022-09-24T06:25:22;1.77;;;1.42;;
59960;SDS011;55902;-37.980;-63.602;2022-09-24T06:27:52;2.15;;;1.30;;
59960;SDS011;55902;-37.980;-63.602;2022-09-24T06:30:29;3.13;;;1.60;;
59960;SDS011;55902;-37.980;-63.602;2022-09-24T06:33:02;2.60;;;1.50;;
59960;SDS011;55902;-37.980;-63.602;2022-09-24T06:35:36;1.40;;;1.30;;
59960;SDS011;55902;-37.980;-63.602;2022-09-24T06:38:04;3.90;;;1.35;;
59960;SDS011;55902;-37.980;-63.602;2022-09-24T06:40:36;2.97;;;1.35;;
59960;SDS011;55902;-37.980;-63.602;2022-09-24T06:43:04;3.75;;;1.50;;
59960;SDS011;55902;-37.980;-63.602;2022-09-24T06:45:31;2.65;;;1.40;;
59960;SDS011;55902;-37.980;-63.602;2022-09-24T06:47:59;5.88;;;1.70;;
59960;SDS011;55902;-37.980;-63.602;2022-09-24T06:50:28;2.47;;;1.40;;
59960;SDS011;55902;-37.980;-63.602;2022-09-24T06:52:56;3.17;;;1.50;;
59960;SDS011;55902;-37.980;-63.602;2022-09-24T06:55:23;3.17;;;1.50;;
59960;SDS011;55902;-37.980;-63.602;2022-09-24T06:57:59;2.72;;;1.50;;
59960;SDS011;55902;-37.980;-63.602;2022-09-24T07:00:34;4.30;;;1.60;;
59960;SDS011;55902;-37.980;-63.602;2022-09-24T07:03:03;4.85;;;1.50;;
59960;SDS011;55902;-37.980;-63.602;2022-09-24T07:05:34;3.90;;;1.60;;
59960;SDS011;55902;-37.980;-63.602;2022-09-24T07:08:01;3.03;;;1.30;;
59960;SDS011;55902;-37.980;-63.602;2022-09-24T07:10:28;2.35;;;1.40;;
59960;SDS011;55902;-37.980;-63.602;2022-09-24T07:12:55;1.95;;;1.33;;
59960;SDS011;55902;-37.980;-63.602;2022-09-24T07:15:22;4.25;;;1.70;;
59960;SDS011;55902;-37.980;-63.602;2022-09-24T07:17:53;5.30;;;1.80;;
59960;SDS011;55902;-37.980;-63.602;2022-09-24T07:20:21;4.70;;;1.60;;
59960;SDS011;55902;-37.980;-63.602;2022-09-24T07:32:54;1.83;;;1.60;;
59960;SDS011;55902;-37.980;-63.602;2022-09-24T07:35:22;1.67;;;1.55;;
59960;SDS011;55902;-37.980;-63.602;2022-09-24T07:37:54;1.58;;;1.40;;
59960;SDS011;55902;-37.980;-63.602;2022-09-24T07:40:30;1.98;;;1.60;;
59960;SDS011;55902;-37.980;-63.602;2022-09-24T07:42:57;1.52;;;1.38;;
59960;SDS011;55902;-37.980;-63.602;2022-09-24T07:45:25;1.77;;;1.40;;
59960;SDS011;55902;-37.980;-63.602;2022-09-24T07:47:59;2.17;;;1.20;;
59960;SDS011;55902;-37.980;-63.602;2022-09-24T07:50:28;1.60;;;1.37;;
59960;SDS011;55902;-37.980;-63.602;2022-09-24T07:52:56;2.38;;;1.40;;
59960;SDS011;55902;-37.980;-63.602;2022-09-24T07:55:25;2.95;;;1.50;;
59960;SDS011;55902;-37.980;-63.602;2022-09-24T07:57:53;2.47;;;1.50;;
59960;SDS011;55902;-37.980;-63.602;2022-09-24T08:00:21;2.20;;;1.55;;
59960;SDS011;55902;-37.980;-63.602;2022-09-24T08:02:49;1.98;;;1.52;;
59960;SDS011;55902;-37.980;-63.602;2022-09-24T08:05:18;1.50;;;1.40;;
59960;SDS011;55902;-37.980;-63.602;2022-09-24T08:07:52;3.10;;;1.65;;
59960;SDS011;55902;-37.980;-63.602;2022-09-24T08:10:20;2.05;;;1.50;;
59960;SDS011;55902;-37.980;-63.602;2022-09-24T08:12:51;4.50;;;1.60;;
59960;SDS011;55902;-37.980;-63.602;2022-09-24T08:15:21;1.48;;;1.38;;
59960;SDS011;55902;-37.980;-63.602;2022-09-24T08:17:48;1.70;;;1.40;;
59960;SDS011;55902;-37.980;-63.602;2022-09-24T08:20:15;1.63;;;1.40;;
59960;SDS011;55902;-37.980;-63.602;2022-09-24T08:22:42;2.13;;;1.60;;
59960;SDS011;55902;-37.980;-63.602;2022-09-24T08:25:09;1.67;;;1.52;;
59960;SDS011;55902;-37.980;-63.602;2022-09-24T08:27:36;1.75;;;1.42;;
59960;SDS011;55902;-37.980;-63.602;2022-09-24T08:30:03;2.05;;;1.60;;
59960;SDS011;55902;-37.980;-63.602;2022-09-24T08:32:31;3.35;;;1.40;;
59960;SDS011;55902;-37.980;-63.602;2022-09-24T08:34:58;2.53;;;1.50;;
59960;SDS011;55902;-37.980;-63.602;2022-09-24T08:37:26;1.50;;;1.35;;
59960;SDS011;55902;-37.980;-63.602;2022-09-24T08:39:53;2.40;;;1.50;;
59960;SDS011;55902;-37.980;-63.602;2022-09-24T08:55:46;1.65;;;1.52;;
59960;SDS011;55902;-37.980;-63.602;2022-09-24T09:06:33;2.75;;;2.00;;
59960;SDS011;55902;-37.980;-63.602;2022-09-24T09:11:49;4.15;;;2.25;;
59960;SDS011;55902;-37.980;-63.602;2022-09-24T09:14:36;5.15;;;2.90;;
59960;SDS011;55902;-37.980;-63.602;2022-09-24T09:17:23;8.63;;;4.15;;
59960;SDS011;55902;-37.980;-63.602;2022-09-24T09:19:59;13.85;;;5.70;;
59960;SDS011;55902;-37.980;-63.602;2022-09-24T09:22:33;15.95;;;5.85;;
59960;SDS011;55902;-37.980;-63.602;2022-09-24T09:25:15;12.25;;;4.30;;
59960;SDS011;55902;-37.980;-63.602;2022-09-24T09:28:11;6.25;;;3.00;;
59960;SDS011;55902;-37.980;-63.602;2022-09-24T09:30:47;7.00;;;2.40;;
59960;SDS011;55902;-37.980;-63.602;2022-09-24T09:38:57;3.92;;;1.90;;
59960;SDS011;55902;-37.980;-63.602;2022-09-24T09:41:46;2.03;;;1.80;;
59960;SDS011;55902;-37.980;-63.602;2022-09-24T09:44:41;2.95;;;2.10;;
59960;SDS011;55902;-37.980;-63.602;2022-09-24T09:49:52;2.45;;;1.80;;
59960;SDS011;55902;-37.980;-63.602;2022-09-24T09:52:23;3.05;;;1.70;;
59960;SDS011;55902;-37.980;-63.602;2022-09-24T09:54:53;1.90;;;1.67;;
59960;SDS011;55902;-37.980;-63.602;2022-09-24T09:57:21;1.95;;;1.60;;
59960;SDS011;55902;-37.980;-63.602;2022-09-24T09:59:53;2.60;;;1.70;;
59960;SDS011;55902;-37.980;-63.602;2022-09-24T10:02:24;2.42;;;1.60;;
59960;SDS011;55902;-37.980;-63.602;2022-09-24T10:04:58;2.72;;;1.88;;
59960;SDS011;55902;-37.980;-63.602;2022-09-24T10:07:27;2.20;;;1.60;;
59960;SDS011;55902;-37.980;-63.602;2022-09-24T10:10:10;2.08;;;1.70;;
59960;SDS011;55902;-37.980;-63.602;2022-09-24T10:12:43;2.13;;;1.80;;
59960;SDS011;55902;-37.980;-63.602;2022-09-24T10:15:20;3.25;;;1.80;;
59960;SDS011;55902;-37.980;-63.602;2022-09-24T10:17:51;3.10;;;2.22;;
59960;SDS011;55902;-37.980;-63.602;2022-09-24T10:22:53;3.00;;;1.60;;
59960;SDS011;55902;-37.980;-63.602;2022-09-24T10:25:26;3.80;;;1.80;;
59960;SDS011;55902;-37.980;-63.602;2022-09-24T10:27:56;2.60;;;1.80;;
59960;SDS011;55902;-37.980;-63.602;2022-09-24T10:30:52;3.28;;;1.98;;
59960;SDS011;55902;-37.980;-63.602;2022-09-24T10:33:38;2.05;;;1.80;;
59960;SDS011;55902;-37.980;-63.602;2022-09-24T10:36:20;5.70;;;2.20;;
59960;SDS011;55902;-37.980;-63.602;2022-09-24T10:38:59;4.40;;;1.92;;
59960;SDS011;55902;-37.980;-63.602;2022-09-24T10:41:32;4.70;;;2.00;;
59960;SDS011;55902;-37.980;-63.602;2022-09-24T10:44:09;2.95;;;2.00;;
59960;SDS011;55902;-37.980;-63.602;2022-09-24T10:55:18;3.25;;;1.80;;
59960;SDS011;55902;-37.980;-63.602;2022-09-24T10:58:15;2.15;;;1.90;;
59960;SDS011;55902;-37.980;-63.602;2022-09-24T11:06:26;1.98;;;1.73;;
59960;SDS011;55902;-37.980;-63.602;2022-09-24T11:14:34;4.43;;;2.40;;
59960;SDS011;55902;-37.980;-63.602;2022-09-24T11:28:57;2.03;;;1.80;;
59960;SDS011;55902;-37.980;-63.602;2022-09-24T11:39:43;2.92;;;1.77;;
59960;SDS011;55902;-37.980;-63.602;2022-09-24T11:42:32;2.28;;;1.70;;
59960;SDS011;55902;-37.980;-63.602;2022-09-24T11:50:58;2.25;;;1.60;;
59960;SDS011;55902;-37.980;-63.602;2022-09-24T11:53:56;1.83;;;1.60;;
59960;SDS011;55902;-37.980;-63.602;2022-09-24T11:56:38;2.93;;;1.70;;
59960;SDS011;55902;-37.980;-63.602;2022-09-24T11:59:21;2.65;;;1.40;;
59960;SDS011;55902;-37.980;-63.602;2022-09-24T12:01:51;2.75;;;1.50;;
59960;SDS011;55902;-37.980;-63.602;2022-09-24T12:14:30;2.70;;;1.60;;
59960;SDS011;55902;-37.980;-63.602;2022-09-24T12:17:16;2.67;;;1.70;;
59960;SDS011;55902;-37.980;-63.602;2022-09-24T12:22:48;2.60;;;1.70;;
59960;SDS011;55902;-37.980;-63.602;2022-09-24T12:25:25;3.15;;;1.60;;
59960;SDS011;55902;-37.980;-63.602;2022-09-24T12:27:57;2.88;;;1.30;;
59960;SDS011;55902;-37.980;-63.602;2022-09-24T12:33:51;2.95;;;1.48;;
59960;SDS011;55902;-37.980;-63.602;2022-09-24T12:39:19;3.22;;;1.50;;
59960;SDS011;55902;-37.980;-63.602;2022-09-24T12:41:51;3.20;;;1.40;;
59960;SDS011;55902;-37.980;-63.602;2022-09-24T12:44:35;3.00;;;1.30;;
59960;SDS011;55902;-37.980;-63.602;2022-09-24T12:47:31;3.40;;;1.40;;
59960;SDS011;55902;-37.980;-63.602;2022-09-24T12:50:03;3.20;;;1.20;;
59960;SDS011;55902;-37.980;-63.602;2022-09-24T12:52:35;1.70;;;1.20;;
59960;SDS011;55902;-37.980;-63.602;2022-09-24T12:55:14;1.70;;;1.08;;
59960;SDS011;55902;-37.980;-63.602;2022-09-24T12:57:53;2.42;;;1.20;;
59960;SDS011;55902;-37.980;-63.602;2022-09-24T13:03:04;3.20;;;1.38;;
59960;SDS011;55902;-37.980;-63.602;2022-09-24T13:05:49;2.70;;;1.10;;
59960;SDS011;55902;-37.980;-63.602;2022-09-24T13:10:58;3.78;;;1.70;;
59960;SDS011;55902;-37.980;-63.602;2022-09-24T13:13:30;3.25;;;1.60;;
59960;SDS011;55902;-37.980;-63.602;2022-09-24T13:18:32;2.85;;;1.10;;
59960;SDS011;55902;-37.980;-63.602;2022-09-24T13:21:04;2.85;;;1.00;;
59960;SDS011;55902;-37.980;-63.602;2022-09-24T13:23:42;5.88;;;1.40;;
59960;SDS011;55902;-37.980;-63.602;2022-09-24T13:26:12;4.03;;;1.42;;
59960;SDS011;55902;-37.980;-63.602;2022-09-24T13:28:56;2.55;;;1.17;;
59960;SDS011;55902;-37.980;-63.602;2022-09-24T13:39:58;2.92;;;1.00;;
59960;SDS011;55902;-37.980;-63.602;2022-09-24T13:42:32;3.75;;;1.00;;
59960;SDS011;55902;-37.980;-63.602;2022-09-24T13:45:37;2.72;;;1.08;;
59960;SDS011;55902;-37.980;-63.602;2022-09-24T13:55:59;1.60;;;0.90;;
59960;SDS011;55902;-37.980;-63.602;2022-09-24T13:58:36;3.17;;;0.82;;
59960;SDS011;55902;-37.980;-63.602;2022-09-24T14:01:15;2.42;;;1.00;;
59960;SDS011;55902;-37.980;-63.602;2022-09-24T14:03:55;1.95;;;0.80;;
59960;SDS011;55902;-37.980;-63.602;2022-09-24T14:06:33;4.63;;;1.15;;
59960;SDS011;55902;-37.980;-63.602;2022-09-24T14:12:11;2.58;;;0.95;;
59960;SDS011;55902;-37.980;-63.602;2022-09-24T14:14:43;3.70;;;1.20;;
59960;SDS011;55902;-37.980;-63.602;2022-09-24T14:17:14;2.85;;;1.25;;
59960;SDS011;55902;-37.980;-63.602;2022-09-24T14:19:41;5.03;;;0.93;;
59960;SDS011;55902;-37.980;-63.602;2022-09-24T14:22:17;2.13;;;1.02;;
59960;SDS011;55902;-37.980;-63.602;2022-09-24T14:24:59;3.30;;;1.10;;
59960;SDS011;55902;-37.980;-63.602;2022-09-24T14:27:31;4.13;;;0.90;;
59960;SDS011;55902;-37.980;-63.602;2022-09-24T14:33:27;2.88;;;1.00;;
59960;SDS011;55902;-37.980;-63.602;2022-09-24T14:35:57;3.30;;;1.15;;
59960;SDS011;55902;-37.980;-63.602;2022-09-24T14:38:26;3.75;;;0.93;;
59960;SDS011;55902;-37.980;-63.602;2022-09-24T14:43:33;2.70;;;0.90;;
59960;SDS011;55902;-37.980;-63.602;2022-09-24T14:46:04;2.95;;;0.95;;
59960;SDS011;55902;-37.980;-63.602;2022-09-24T14:49:03;3.03;;;0.80;;
59960;SDS011;55902;-37.980;-63.602;2022-09-24T14:51:59;3.07;;;1.03;;
59960;SDS011;55902;-37.980;-63.602;2022-09-24T14:54:30;2.72;;;1.10;;
59960;SDS011;55902;-37.980;-63.602;2022-09-24T14:59:45;1.85;;;0.98;;
59960;SDS011;55902;-37.980;-63.602;2022-09-24T15:02:17;2.33;;;0.90;;
59960;SDS011;55902;-37.980;-63.602;2022-09-24T15:04:52;2.30;;;0.93;;
59960;SDS011;55902;-37.980;-63.602;2022-09-24T15:07:24;2.10;;;0.90;;
59960;SDS011;55902;-37.980;-63.602;2022-09-24T15:09:53;3.95;;;1.00;;
59960;SDS011;55902;-37.980;-63.602;2022-09-24T15:12:33;5.07;;;1.00;;
59960;SDS011;55902;-37.980;-63.602;2022-09-24T15:15:03;3.58;;;0.95;;
59960;SDS011;55902;-37.980;-63.602;2022-09-24T15:17:49;1.83;;;1.15;;
59960;SDS011;55902;-37.980;-63.602;2022-09-24T15:20:16;3.38;;;1.30;;
59960;SDS011;55902;-37.980;-63.602;2022-09-24T15:22:42;4.70;;;1.02;;
59960;SDS011;55902;-37.980;-63.602;2022-09-24T15:25:12;2.58;;;0.80;;
59960;SDS011;55902;-37.980;-63.602;2022-09-24T15:27:40;4.22;;;2.17;;
59960;SDS011;55902;-37.980;-63.602;2022-09-24T15:30:11;7.80;;;2.10;;
59960;SDS011;55902;-37.980;-63.602;2022-09-24T15:32:46;1.40;;;1.15;;
59960;SDS011;55902;-37.980;-63.602;2022-09-24T15:35:16;1.60;;;1.10;;
59960;SDS011;55902;-37.980;-63.602;2022-09-24T15:37:43;3.10;;;0.90;;
59960;SDS011;55902;-37.980;-63.602;2022-09-24T15:40:18;2.50;;;1.17;;
59960;SDS011;55902;-37.980;-63.602;2022-09-24T15:42:48;3.05;;;0.90;;
59960;SDS011;55902;-37.980;-63.602;2022-09-24T15:45:16;1.95;;;1.00;;
59960;SDS011;55902;-37.980;-63.602;2022-09-24T15:47:46;3.03;;;0.82;;
59960;SDS011;55902;-37.980;-63.602;2022-09-24T16:11:57;2.40;;;0.95;;
59960;SDS011;55902;-37.980;-63.602;2022-09-24T16:14:25;2.25;;;0.80;;
59960;SDS011;55902;-37.980;-63.602;2022-09-24T16:16:52;3.78;;;1.00;;
59960;SDS011;55902;-37.980;-63.602;2022-09-24T16:19:20;2.13;;;0.82;;
59960;SDS011;55902;-37.980;-63.602;2022-09-24T16:21:47;1.75;;;0.98;;
59960;SDS011;55902;-37.980;-63.602;2022-09-24T16:24:16;1.67;;;0.80;;
59960;SDS011;55902;-37.980;-63.602;2022-09-24T16:26:43;2.78;;;0.80;;
59960;SDS011;55902;-37.980;-63.602;2022-09-24T16:29:10;2.53;;;1.27;;
59960;SDS011;55902;-37.980;-63.602;2022-09-24T16:31:37;3.05;;;1.25;;
59960;SDS011;55902;-37.980;-63.602;2022-09-24T16:34:04;1.98;;;1.00;;
59960;SDS011;55902;-37.980;-63.602;2022-09-24T16:36:31;2.05;;;1.23;;
59960;SDS011;55902;-37.980;-63.602;2022-09-24T16:38:57;3.22;;;0.93;;
59960;SDS011;55902;-37.980;-63.602;2022-09-24T16:51:31;2.83;;;1.60;;
59960;SDS011;55902;-37.980;-63.602;2022-09-24T16:53:58;2.97;;;1.50;;
59960;SDS011;55902;-37.980;-63.602;2022-09-24T16:56:28;2.97;;;1.17;;
59960;SDS011;55902;-37.980;-63.602;2022-09-24T16:58:55;2.55;;;1.02;;
59960;SDS011;55902;-37.980;-63.602;2022-09-24T17:01:22;2.83;;;1.08;;
59960;SDS011;55902;-37.980;-63.602;2022-09-24T17:03:52;4.03;;;1.25;;
59960;SDS011;55902;-37.980;-63.602;2022-09-24T17:06:23;3.53;;;1.10;;
59960;SDS011;55902;-37.980;-63.602;2022-09-24T17:08:52;2.78;;;1.10;;
59960;SDS011;55902;-37.980;-63.602;2022-09-24T17:11:38;2.88;;;1.10;;
59960;SDS011;55902;-37.980;-63.602;2022-09-24T17:14:05;2.50;;;1.20;;
59960;SDS011;55902;-37.980;-63.602;2022-09-24T17:16:36;3.00;;;1.25;;
59960;SDS011;55902;-37.980;-63.602;2022-09-24T17:19:03;1.75;;;1.23;;
59960;SDS011;55902;-37.980;-63.602;2022-09-24T17:21:32;2.05;;;1.10;;
59960;SDS011;55902;-37.980;-63.602;2022-09-24T17:24:00;2.03;;;1.27;;
59960;SDS011;55902;-37.980;-63.602;2022-09-24T17:26:27;4.25;;;1.63;;
59960;SDS011;55902;-37.980;-63.602;2022-09-24T17:28:54;3.28;;;1.20;;
59960;SDS011;55902;-37.980;-63.602;2022-09-24T17:31:22;1.95;;;1.00;;
59960;SDS011;55902;-37.980;-63.602;2022-09-24T17:33:54;2.10;;;1.30;;
59960;SDS011;55902;-37.980;-63.602;2022-09-24T17:36:22;2.15;;;1.05;;
59960;SDS011;55902;-37.980;-63.602;2022-09-24T17:38:50;1.85;;;0.95;;
59960;SDS011;55902;-37.980;-63.602;2022-09-24T17:41:17;2.55;;;1.38;;
59960;SDS011;55902;-37.980;-63.602;2022-09-24T17:43:44;5.18;;;2.65;;
59960;SDS011;55902;-37.980;-63.602;2022-09-24T17:46:16;3.75;;;1.52;;
59960;SDS011;55902;-37.980;-63.602;2022-09-24T17:48:47;3.53;;;1.40;;
59960;SDS011;55902;-37.980;-63.602;2022-09-24T17:51:29;2.97;;;1.23;;
59960;SDS011;55902;-37.980;-63.602;2022-09-24T17:53:58;3.08;;;1.50;;
59960;SDS011;55902;-37.980;-63.602;2022-09-24T17:56:27;4.57;;;1.70;;
59960;SDS011;55902;-37.980;-63.602;2022-09-24T17:58:56;5.65;;;1.63;;
59960;SDS011;55902;-37.980;-63.602;2022-09-24T18:01:28;3.55;;;1.38;;
59960;SDS011;55902;-37.980;-63.602;2022-09-24T18:03:58;4.90;;;1.60;;
59960;SDS011;55902;-37.980;-63.602;2022-09-24T18:06:25;3.38;;;1.40;;
59960;SDS011;55902;-37.980;-63.602;2022-09-24T18:08:56;3.95;;;1.58;;
59960;SDS011;55902;-37.980;-63.602;2022-09-24T18:11:29;2.20;;;1.48;;
59960;SDS011;55902;-37.980;-63.602;2022-09-24T18:14:03;3.95;;;1.52;;